Terminal Aerodrome Forecast
Issued by NWS Binghamton, NY

Home | Current Version | Previous Version | Text Only | Print | Product List | Glossary On
Versions: 1 2 3 4 5 6 7 8 9 10 11 12 13 14 15
000
FTUS41 KBGM 231125
TAFSYR
TAF
KSYR 231125Z 2312/2412 19006KT P6SM OVC060
     FM231500 25011G19KT P6SM BKN045
     FM232300 30006KT P6SM BKN035
     FM240600 00000KT P6SM BKN030
     FM241000 00000KT 5SM -RA BR OVC025=

USA.gov is the U.S. government's official web portal to all federal, state and local government web resources and services.